Time;durP1;ratioP1;P1;durP2;ratioP2;P2;SDS_P1;SDS_P2;PMS_P1;PMS_P2;Temp;Humidity;BMP_temperature;BMP_pressure;BME280_temperature;BME280_humidity;BME280_pressure;Samples;Min_cycle;Max_cycle;Signal;HPM_P1;HPM_P2
2022/06/13 00:02:02;;;;;;;3.22;1.58;;;16.90;99.90;;;;;;4921816;29;20034;-59
2022/06/13 00:04:28;;;;;;;3.25;1.60;;;17.00;99.90;;;;;;4925360;29;20058;-59
2022/06/13 00:06:54;;;;;;;2.60;1.45;;;16.90;99.90;;;;;;4924350;29;20463;-62
2022/06/13 00:09:19;;;;;;;4.88;1.80;;;17.00;99.90;;;;;;4923037;29;20495;-59
2022/06/13 00:11:45;;;;;;;2.40;1.67;;;17.00;99.90;;;;;;4922088;29;20060;-59
2022/06/13 00:14:11;;;;;;;4.85;1.70;;;17.00;99.90;;;;;;4925229;29;20483;-59
2022/06/13 00:16:37;;;;;;;3.35;1.60;;;17.10;99.90;;;;;;4924255;29;20485;-59
2022/06/13 00:19:03;;;;;;;1.88;1.23;;;17.10;99.90;;;;;;4924490;29;20028;-59
2022/06/13 00:21:35;;;;;;;4.95;1.40;;;17.20;99.90;;;;;;4922728;29;20028;-59
2022/06/13 00:24:03;;;;;;;2.88;1.60;;;17.20;99.90;;;;;;4921712;29;20365;-59
2022/06/13 00:26:32;;;;;;;5.15;1.95;;;17.20;99.90;;;;;;4927371;29;20024;-59
2022/06/13 00:28:57;;;;;;;3.92;1.67;;;17.20;99.90;;;;;;4921084;29;20040;-59
2022/06/13 00:31:23;;;;;;;4.90;2.13;;;17.20;99.90;;;;;;4925743;29;20028;-59
2022/06/13 00:33:49;;;;;;;3.40;1.92;;;17.10;99.90;;;;;;4922882;29;20028;-59
2022/06/13 00:36:16;;;;;;;3.97;1.33;;;17.20;99.90;;;;;;4923479;29;20492;-59
2022/06/13 00:38:42;;;;;;;2.80;1.58;;;17.10;99.90;;;;;;4923881;29;20111;-59
2022/06/13 00:41:15;;;;;;;11.98;1.55;;;17.10;99.90;;;;;;4922174;29;20042;-59
2022/06/13 00:43:43;;;;;;;2.97;1.55;;;17.10;99.90;;;;;;4926641;29;20038;-59
2022/06/13 00:46:31;;;;;;;3.83;1.60;;;17.20;99.90;;;;;;4921590;29;20083;-59
2022/06/13 00:49:15;;;;;;;4.78;1.90;;;17.10;99.90;;;;;;4922457;29;20116;-59
2022/06/13 00:51:46;;;;;;;6.32;1.73;;;17.10;99.90;;;;;;4920039;29;20024;-59
2022/06/13 00:54:15;;;;;;;2.65;1.60;;;17.10;99.90;;;;;;4921308;29;21597;-60
2022/06/13 00:56:41;;;;;;;4.68;1.50;;;17.10;99.90;;;;;;4909559;29;20036;-59
2022/06/13 00:59:14;;;;;;;7.68;2.00;;;17.10;99.90;;;;;;4923929;29;20397;-59
2022/06/13 01:01:40;;;;;;;2.58;1.73;;;17.00;99.90;;;;;;4921570;29;20117;-59
2022/06/13 01:04:07;;;;;;;3.22;1.50;;;17.00;99.90;;;;;;4923401;29;20491;-59
2022/06/13 01:06:37;;;;;;;3.45;1.60;;;17.00;99.90;;;;;;4924841;29;20067;-59
2022/06/13 01:09:07;;;;;;;2.90;1.50;;;17.00;99.90;;;;;;4921645;29;20040;-59
2022/06/13 01:11:33;;;;;;;3.40;1.60;;;17.00;99.90;;;;;;4921520;29;20067;-59
2022/06/13 01:14:20;;;;;;;3.03;1.70;;;16.90;99.90;;;;;;4918767;29;20032;-59
2022/06/13 01:17:04;;;;;;;4.95;1.48;;;16.90;99.90;;;;;;4920962;29;20036;-59
2022/06/13 01:20:06;;;;;;;4.57;1.60;;;16.90;99.90;;;;;;4920934;29;20046;-59
2022/06/13 01:22:53;;;;;;;3.80;1.75;;;16.90;99.90;;;;;;4924422;29;20739;-59
2022/06/13 01:25:25;;;;;;;3.30;1.67;;;16.90;99.90;;;;;;4924205;29;20059;-59
2022/06/13 01:28:33;;;;;;;4.07;1.55;;;17.00;99.90;;;;;;4919193;29;20035;-59
2022/06/13 01:31:11;;;;;;;3.63;1.52;;;16.90;99.90;;;;;;4922123;29;20040;-59
2022/06/13 01:34:06;;;;;;;3.95;1.80;;;16.80;99.90;;;;;;4920924;29;20488;-59
2022/06/13 01:36:44;;;;;;;3.63;1.80;;;16.70;99.90;;;;;;4898716;29;20444;-59
2022/06/13 01:39:39;;;;;;;2.20;1.73;;;16.70;99.90;;;;;;4921594;29;20050;-59
2022/06/13 01:42:24;;;;;;;5.15;1.92;;;16.50;99.90;;;;;;4874701;29;20067;-59
2022/06/13 01:45:31;;;;;;;7.47;2.05;;;16.50;99.90;;;;;;4916683;29;20500;-59
2022/06/13 01:48:07;;;;;;;3.05;1.73;;;16.40;99.90;;;;;;4924172;29;20036;-59
2022/06/13 01:50:56;;;;;;;2.20;1.92;;;16.40;99.90;;;;;;4920381;29;20043;-59
2022/06/13 01:53:46;;;;;;;2.22;1.60;;;16.30;99.90;;;;;;4918252;29;20060;-59
2022/06/13 01:56:13;;;;;;;3.03;1.58;;;16.30;99.90;;;;;;4920955;29;20060;-59
2022/06/13 01:58:55;;;;;;;6.80;2.30;;;16.20;99.90;;;;;;4922548;29;20046;-59
2022/06/13 02:01:30;;;;;;;3.63;1.88;;;16.20;99.90;;;;;;4924860;29;20035;-59
2022/06/13 02:04:33;;;;;;;3.63;1.55;;;16.20;99.90;;;;;;4921573;29;20388;-59
2022/06/13 02:07:08;;;;;;;5.60;1.77;;;16.20;99.90;;;;;;4888086;29;20036;-59
2022/06/13 02:09:47;;;;;;;4.13;1.98;;;16.10;99.90;;;;;;4923400;29;20476;-59
2022/06/13 02:12:15;;;;;;;2.45;1.90;;;16.10;99.90;;;;;;4920101;29;20555;-59
2022/06/13 02:14:52;;;;;;;4.30;2.53;;;16.10;99.90;;;;;;4924347;29;20107;-59
2022/06/13 02:17:22;;;;;;;2.70;1.80;;;16.10;99.90;;;;;;4921624;29;20196;-59
2022/06/13 02:20:08;;;;;;;2.60;1.85;;;16.10;99.90;;;;;;4916111;29;20047;-59
2022/06/13 02:22:39;;;;;;;6.43;2.10;;;16.10;99.90;;;;;;4921981;29;20408;-59
2022/06/13 02:25:11;;;;;;;2.28;1.48;;;16.10;99.90;;;;;;4916537;29;20079;-59
2022/06/13 02:27:39;;;;;;;10.15;1.80;;;16.10;99.90;;;;;;4925823;29;20476;-59
2022/06/13 02:30:10;;;;;;;6.15;2.00;;;16.00;99.90;;;;;;4920495;29;20051;-59
2022/06/13 02:32:50;;;;;;;3.08;2.08;;;15.90;99.90;;;;;;4906432;29;20043;-59
2022/06/13 02:35:24;;;;;;;6.45;1.98;;;15.80;99.90;;;;;;4920269;29;20123;-59
2022/06/13 02:38:07;;;;;;;5.47;2.03;;;15.70;99.90;;;;;;4920682;29;20488;-59
2022/06/13 02:40:45;;;;;;;3.70;2.30;;;15.70;99.90;;;;;;4902940;29;20508;-59
2022/06/13 02:43:23;;;;;;;4.40;2.08;;;15.60;99.90;;;;;;4901260;29;20079;-59
2022/06/13 02:45:53;;;;;;;4.78;2.30;;;15.60;99.90;;;;;;4921713;29;20075;-59
2022/06/13 02:48:25;;;;;;;3.03;2.27;;;15.50;99.90;;;;;;4921075;29;20083;-58
2022/06/13 02:51:26;;;;;;;3.45;2.03;;;15.50;99.90;;;;;;4919447;29;20562;-59
2022/06/13 02:54:18;;;;;;;2.85;1.95;;;15.40;99.90;;;;;;4907324;29;20067;-58
2022/06/13 02:57:24;;;;;;;4.72;1.95;;;15.30;99.90;;;;;;4922680;29;20032;-58
2022/06/13 03:00:04;;;;;;;2.65;1.95;;;15.30;99.90;;;;;;4918636;29;20043;-59
2022/06/13 03:02:51;;;;;;;6.72;2.08;;;15.20;99.90;;;;;;4921317;29;20055;-59
2022/06/13 03:05:33;;;;;;;4.13;2.35;;;15.20;99.90;;;;;;4917683;29;20040;-59
2022/06/13 03:08:23;;;;;;;3.92;2.38;;;15.10;99.90;;;;;;4923441;29;20023;-59
2022/06/13 03:11:00;;;;;;;2.53;1.88;;;15.10;99.90;;;;;;4917837;29;20042;-59
2022/06/13 03:13:36;;;;;;;3.67;2.25;;;15.10;99.90;;;;;;4919506;29;20039;-59
2022/06/13 03:16:20;;;;;;;3.97;2.25;;;15.00;99.90;;;;;;4921261;29;20046;-59
2022/06/13 03:18:50;;;;;;;2.58;1.83;;;14.90;99.90;;;;;;4922076;29;20033;-59
2022/06/13 03:21:27;;;;;;;2.47;1.93;;;14.80;99.90;;;;;;4921183;29;20036;-59
2022/06/13 03:24:05;;;;;;;3.67;2.50;;;14.80;99.90;;;;;;4920546;29;20054;-59
2022/06/13 03:26:37;;;;;;;3.60;2.28;;;14.70;99.90;;;;;;4921588;29;20028;-59
2022/06/13 03:29:13;;;;;;;3.58;2.15;;;14.70;99.90;;;;;;4920100;29;20043;-59
2022/06/13 03:31:57;;;;;;;5.75;3.03;;;14.60;99.90;;;;;;4920834;29;20056;-59
2022/06/13 03:34:32;;;;;;;5.88;2.13;;;14.60;99.90;;;;;;4921328;29;20054;-59
2022/06/13 03:37:14;;;;;;;5.25;2.58;;;14.50;99.90;;;;;;4904629;29;20083;-60
2022/06/13 03:39:46;;;;;;;6.75;2.30;;;14.50;99.90;;;;;;4924793;29;20031;-60
2022/06/13 03:42:26;;;;;;;3.08;2.42;;;14.50;99.90;;;;;;4921874;29;20032;-59
2022/06/13 03:45:16;;;;;;;4.00;2.25;;;14.50;99.90;;;;;;4922631;29;20036;-59
2022/06/13 03:48:04;;;;;;;3.33;2.20;;;14.60;99.90;;;;;;4920489;29;20180;-59
2022/06/13 03:50:38;;;;;;;4.80;2.17;;;14.60;99.90;;;;;;4923752;29;20046;-59
2022/06/13 03:53:13;;;;;;;3.67;2.15;;;14.60;99.90;;;;;;4921778;29;20066;-59
2022/06/13 03:55:50;;;;;;;3.58;2.20;;;14.70;99.90;;;;;;4927787;29;20076;-59
2022/06/13 03:58:24;;;;;;;4.35;3.00;;;14.70;99.90;;;;;;4923163;29;20040;-59
2022/06/13 04:01:17;;;;;;;3.75;2.33;;;14.70;99.90;;;;;;4921333;29;20024;-59
2022/06/13 04:03:43;;;;;;;5.82;2.92;;;14.80;99.90;;;;;;4924567;29;20096;-59
2022/06/13 04:06:33;;;;;;;5.30;2.35;;;14.70;99.90;;;;;;4923881;29;20035;-59
2022/06/13 04:09:03;;;;;;;4.95;2.65;;;14.80;99.90;;;;;;4923122;29;20500;-59
2022/06/13 04:11:44;;;;;;;4.50;2.35;;;14.80;99.90;;;;;;4922361;29;20024;-59
2022/06/13 04:14:18;;;;;;;6.43;2.45;;;14.80;99.90;;;;;;4925127;29;20517;-59
2022/06/13 04:16:59;;;;;;;5.43;2.50;;;14.90;99.90;;;;;;4921315;29;20033;-60
2022/06/13 04:19:52;;;;;;;6.20;2.20;;;14.90;99.90;;;;;;4919173;29;20058;-59
2022/06/13 04:22:36;;;;;;;5.63;2.85;;;15.00;99.90;;;;;;4921048;29;20032;-59
2022/06/13 04:25:15;;;;;;;3.72;1.77;;;15.20;99.90;;;;;;4918947;29;20028;-60
2022/06/13 04:28:01;;;;;;;3.33;2.22;;;15.30;99.90;;;;;;4906268;29;20031;-60
2022/06/13 04:30:30;;;;;;;5.35;2.60;;;15.30;99.90;;;;;;4924449;29;20040;-59
2022/06/13 04:33:04;;;;;;;3.45;2.08;;;15.30;99.90;;;;;;4919915;29;20028;-59
2022/06/13 04:35:33;;;;;;;5.07;1.90;;;15.40;99.90;;;;;;4922281;29;20036;-59
2022/06/13 04:38:02;;;;;;;4.00;2.17;;;15.40;99.90;;;;;;4922585;29;20040;-59
2022/06/13 04:40:29;;;;;;;3.28;2.08;;;15.60;99.90;;;;;;4923553;29;20047;-59
2022/06/13 04:42:56;;;;;;;4.25;1.90;;;15.70;99.90;;;;;;4922204;29;20115;-59
2022/06/13 04:45:31;;;;;;;3.05;1.80;;;15.90;99.90;;;;;;4922179;29;20034;-60
2022/06/13 04:47:58;;;;;;;3.13;2.40;;;16.00;99.90;;;;;;4921912;29;20032;-60
2022/06/13 04:50:37;;;;;;;4.93;2.15;;;16.20;99.90;;;;;;4924835;29;20039;-59
2022/06/13 04:53:06;;;;;;;6.68;2.22;;;16.30;99.90;;;;;;4918656;29;20036;-59
2022/06/13 04:55:40;;;;;;;4.30;2.22;;;16.50;99.90;;;;;;4921767;29;20172;-59
2022/06/13 04:58:28;;;;;;;3.35;1.98;;;16.60;99.90;;;;;;4919566;29;20019;-60
2022/06/13 05:01:22;;;;;;;7.75;2.30;;;16.70;99.90;;;;;;4925504;29;20086;-60
2022/06/13 05:03:48;;;;;;;3.78;1.80;;;16.90;99.90;;;;;;4923053;29;20039;-59
2022/06/13 05:06:44;;;;;;;3.40;2.00;;;17.10;99.90;;;;;;4923870;29;20559;-60
2022/06/13 05:09:10;;;;;;;7.32;2.47;;;17.20;99.90;;;;;;4921448;29;20441;-59
2022/06/13 05:11:38;;;;;;;9.68;2.20;;;17.50;99.90;;;;;;4923258;29;20116;-60
2022/06/13 05:14:15;;;;;;;6.00;1.92;;;18.30;99.90;;;;;;4909261;29;20503;-60
2022/06/13 05:17:26;;;;;;;4.15;1.60;;;19.50;98.70;;;;;;4917817;29;20037;-60
2022/06/13 05:20:12;;;;;;;9.93;2.28;;;21.20;91.00;;;;;;4923682;29;20035;-61
2022/06/13 05:22:50;;;;;;;5.70;1.70;;;21.70;83.20;;;;;;4923659;29;20051;-60
2022/06/13 05:25:21;;;;;;;4.05;1.52;;;21.70;79.70;;;;;;4919623;29;20119;-60
2022/06/13 05:27:47;;;;;;;3.88;1.20;;;22.00;78.40;;;;;;4923403;29;20043;-60
2022/06/13 05:30:14;;;;;;;3.03;1.65;;;22.70;75.60;;;;;;4921738;29;20040;-61
2022/06/13 05:32:41;;;;;;;6.40;1.20;;;23.60;71.00;;;;;;4921064;29;20087;-61
2022/06/13 05:35:17;;;;;;;3.10;1.40;;;24.00;68.00;;;;;;4920067;29;20036;-61
2022/06/13 05:37:42;;;;;;;9.35;1.83;;;24.80;67.00;;;;;;4917935;29;20043;-61
2022/06/13 05:40:20;;;;;;;4.10;1.20;;;25.50;62.50;;;;;;4922923;29;20061;-61
2022/06/13 05:42:46;;;;;;;3.53;1.23;;;26.40;59.30;;;;;;4922392;29;20428;-61
2022/06/13 05:45:14;;;;;;;4.00;1.20;;;27.10;57.40;;;;;;4918430;29;20039;-61
2022/06/13 05:47:41;;;;;;;3.85;1.13;;;27.70;56.50;;;;;;4916941;29;20059;-62
2022/06/13 05:50:12;;;;;;;2.22;1.23;;;28.50;53.90;;;;;;4922646;29;20032;-62
2022/06/13 05:52:38;;;;;;;4.75;1.20;;;28.90;51.20;;;;;;4920613;29;20081;-61
2022/06/13 05:55:04;;;;;;;2.97;1.30;;;28.10;51.70;;;;;;4907069;29;20075;-61
2022/06/13 05:57:30;;;;;;;4.05;1.15;;;27.00;53.50;;;;;;4916842;29;20020;-60
2022/06/13 05:59:55;;;;;;;2.38;0.95;;;26.10;55.70;;;;;;4918077;29;20385;-61
2022/06/13 06:02:21;;;;;;;5.32;1.38;;;26.10;57.30;;;;;;4922995;29;20024;-61
2022/06/13 06:04:47;;;;;;;2.58;0.93;;;26.20;55.20;;;;;;4923934;29;20119;-61
2022/06/13 06:07:12;;;;;;;3.22;1.20;;;26.00;56.20;;;;;;4921963;29;20064;-60
2022/06/13 06:09:38;;;;;;;4.47;1.20;;;25.80;56.50;;;;;;4915176;29;20021;-60
2022/06/13 06:12:04;;;;;;;3.83;1.00;;;25.30;56.50;;;;;;4922768;29;20066;-61
2022/06/13 06:14:30;;;;;;;1.55;0.88;;;25.20;57.80;;;;;;4920586;29;20063;-61
2022/06/13 06:16:56;;;;;;;2.65;1.20;;;25.70;57.80;;;;;;4918399;29;20447;-61
2022/06/13 06:19:22;;;;;;;3.88;1.40;;;26.70;55.40;;;;;;4917153;29;20031;-61
2022/06/13 06:21:48;;;;;;;2.83;1.20;;;27.20;53.30;;;;;;4919934;29;20024;-61
2022/06/13 06:24:13;;;;;;;2.17;1.02;;;27.90;53.80;;;;;;4920921;29;20043;-60
2022/06/13 06:26:39;;;;;;;3.60;1.33;;;27.90;52.10;;;;;;4920859;29;20028;-60
2022/06/13 06:29:05;;;;;;;3.30;1.02;;;27.50;52.00;;;;;;4918016;29;20040;-60
2022/06/13 06:31:32;;;;;;;3.53;1.50;;;26.60;54.20;;;;;;4920249;29;20035;-60
2022/06/13 06:33:58;;;;;;;5.38;1.38;;;25.90;56.40;;;;;;4921693;29;20032;-60
2022/06/13 06:36:23;;;;;;;4.93;1.27;;;26.00;56.20;;;;;;4919974;29;20040;-60
2022/06/13 06:38:49;;;;;;;2.88;1.33;;;26.30;55.50;;;;;;4920948;29;20059;-61
2022/06/13 06:41:15;;;;;;;3.15;1.23;;;27.00;54.70;;;;;;4915728;29;20032;-61
2022/06/13 06:43:41;;;;;;;2.83;1.20;;;28.20;53.10;;;;;;4919668;29;20032;-61
2022/06/13 06:46:08;;;;;;;3.55;1.20;;;29.20;50.70;;;;;;4921501;29;20038;-60
2022/06/13 06:48:36;;;;;;;3.75;1.20;;;30.00;48.70;;;;;;4920258;29;20596;-61
2022/06/13 06:51:09;;;;;;;3.20;1.10;;;30.60;48.60;;;;;;4920242;29;20115;-61
2022/06/13 07:01:49;;;;;;;3.22;1.40;;;32.30;45.50;;;;;;4916329;29;20062;-61
2022/06/13 07:04:15;;;;;;;3.22;1.05;;;33.00;44.30;;;;;;4902496;29;20467;-61
2022/06/13 07:06:41;;;;;;;4.10;1.13;;;33.10;43.20;;;;;;4922447;29;20067;-61
2022/06/13 07:09:07;;;;;;;3.47;1.25;;;33.90;41.40;;;;;;4918835;29;20190;-61
2022/06/13 07:14:18;;;;;;;3.67;1.17;;;33.90;41.50;;;;;;4918264;29;20059;-61
2022/06/13 07:16:44;;;;;;;11.38;1.80;;;33.90;41.30;;;;;;4918361;29;20029;-61
2022/06/13 07:19:10;;;;;;;2.65;1.10;;;33.50;40.90;;;;;;4919499;29;20393;-61
2022/06/13 07:21:36;;;;;;;3.90;1.38;;;33.30;40.80;;;;;;4918024;29;20036;-61
2022/06/13 07:24:02;;;;;;;3.75;1.23;;;33.60;42.30;;;;;;4917981;29;20092;-62
2022/06/13 07:26:28;;;;;;;3.38;1.10;;;34.10;41.60;;;;;;4921479;29;20035;-61
2022/06/13 07:28:54;;;;;;;2.53;1.10;;;34.70;42.40;;;;;;4921398;29;20500;-62
2022/06/13 07:31:25;;;;;;;2.80;1.10;;;34.60;39.80;;;;;;4922444;29;20036;-62
2022/06/13 07:33:51;;;;;;;4.20;1.50;;;35.00;39.90;;;;;;4921903;29;20024;-62
2022/06/13 07:36:18;;;;;;;3.13;1.23;;;35.80;39.70;;;;;;4917425;29;20021;-62
2022/06/13 07:38:43;;;;;;;3.03;1.00;;;35.80;38.10;;;;;;4922189;29;20075;-61
2022/06/13 07:41:15;;;;;;;3.28;1.17;;;35.70;39.70;;;;;;4921656;29;20056;-61
2022/06/13 07:43:43;;;;;;;2.78;1.00;;;35.90;38.30;;;;;;4922718;29;20036;-61
2022/06/13 07:46:10;;;;;;;2.67;1.00;;;35.70;38.10;;;;;;4918769;29;20060;-61
2022/06/13 07:48:36;;;;;;;3.20;1.30;;;35.80;38.20;;;;;;4917942;29;20056;-61
2022/06/13 07:51:02;;;;;;;4.88;1.20;;;36.00;38.40;;;;;;4920473;29;20027;-61
2022/06/13 07:53:28;;;;;;;5.65;1.08;;;35.90;37.90;;;;;;4919345;29;20039;-61
2022/06/13 07:55:54;;;;;;;2.90;1.02;;;36.00;37.70;;;;;;4919063;29;20051;-62
2022/06/13 07:58:22;;;;;;;2.92;0.75;;;35.60;38.20;;;;;;4919535;29;20511;-61
2022/06/13 08:00:49;;;;;;;2.88;1.20;;;35.80;38.70;;;;;;4920923;29;20028;-61
2022/06/13 08:03:23;;;;;;;3.63;1.15;;;35.80;38.60;;;;;;4919892;29;20028;-61
2022/06/13 08:05:50;;;;;;;6.63;1.45;;;35.40;37.80;;;;;;4919578;29;20111;-61
2022/06/13 08:08:16;;;;;;;2.83;1.13;;;35.10;38.10;;;;;;4919453;29;20079;-60
2022/06/13 08:10:43;;;;;;;3.13;1.13;;;35.50;38.80;;;;;;4917843;29;20041;-62
2022/06/13 08:13:12;;;;;;;3.95;1.52;;;35.90;38.30;;;;;;4917751;29;20035;-62
2022/06/13 08:15:38;;;;;;;3.47;1.30;;;36.10;37.30;;;;;;4922725;29;20036;-61
2022/06/13 08:18:05;;;;;;;4.10;1.30;;;36.30;38.40;;;;;;4915490;29;20031;-61
2022/06/13 08:20:31;;;;;;;3.15;1.27;;;36.30;38.50;;;;;;4919327;29;20064;-61
2022/06/13 08:22:59;;;;;;;7.28;1.73;;;36.00;36.30;;;;;;4919768;29;20070;-61
2022/06/13 08:25:28;;;;;;;6.07;1.30;;;35.60;36.80;;;;;;4922593;29;20024;-61
2022/06/13 08:27:56;;;;;;;2.17;1.02;;;34.80;37.20;;;;;;4922326;29;20032;-65
2022/06/13 08:30:21;;;;;;;2.72;1.20;;;34.30;38.80;;;;;;4930446;29;20024;-61
2022/06/13 08:32:47;;;;;;;2.60;1.45;;;33.90;39.70;;;;;;4927282;29;20395;-61
2022/06/13 08:35:14;;;;;;;2.58;1.27;;;33.30;40.00;;;;;;4923450;29;20543;-61
2022/06/13 08:37:40;;;;;;;2.97;1.17;;;32.50;40.20;;;;;;4922876;29;20570;-61
2022/06/13 08:40:07;;;;;;;4.88;1.50;;;32.50;42.50;;;;;;4906992;29;20024;-61
2022/06/13 08:42:38;;;;;;;2.90;1.52;;;32.70;42.20;;;;;;4928435;29;20028;-61
2022/06/13 08:45:09;;;;;;;3.63;1.05;;;33.60;41.20;;;;;;4925318;29;20488;-61
2022/06/13 08:47:43;;;;;;;4.35;1.30;;;34.50;39.30;;;;;;4920883;29;20395;-61
2022/06/13 08:50:15;;;;;;;6.05;1.08;;;34.70;38.40;;;;;;4925020;29;20039;-61
2022/06/13 08:53:00;;;;;;;3.88;1.58;;;34.20;38.50;;;;;;4922333;29;20034;-61
2022/06/13 08:55:30;;;;;;;3.85;1.30;;;33.50;39.10;;;;;;4920882;29;20038;-60
2022/06/13 08:58:17;;;;;;;2.88;1.00;;;33.10;39.40;;;;;;4926439;29;20038;-61
2022/06/13 09:00:54;;;;;;;3.10;1.23;;;32.70;41.50;;;;;;4915491;29;20036;-61
2022/06/13 09:03:28;;;;;;;4.72;1.30;;;32.70;41.50;;;;;;4924181;29;20034;-61
2022/06/13 09:05:59;;;;;;;3.17;1.08;;;33.30;41.10;;;;;;4923863;29;20047;-61
2022/06/13 09:08:46;;;;;;;2.15;1.00;;;33.60;39.00;;;;;;4918582;29;20031;-61
2022/06/13 09:11:30;;;;;;;4.00;1.05;;;33.70;39.00;;;;;;4922031;29;20084;-61
2022/06/13 09:14:28;;;;;;;4.90;1.35;;;33.00;38.00;;;;;;4920852;29;20492;-61
2022/06/13 09:17:21;;;;;;;2.30;1.00;;;32.60;38.30;;;;;;4916798;29;20039;-61
2022/06/13 09:19:54;;;;;;;5.20;1.30;;;31.80;41.00;;;;;;4921193;29;20028;-61
2022/06/13 09:22:33;;;;;;;5.00;1.50;;;31.20;41.90;;;;;;4921779;29;20575;-61
2022/06/13 09:25:25;;;;;;;3.92;1.63;;;30.60;43.60;;;;;;4921146;29;20115;-61
2022/06/13 09:28:06;;;;;;;4.72;1.40;;;30.30;43.40;;;;;;4884829;29;20044;-61
2022/06/13 09:30:43;;;;;;;5.03;1.58;;;30.10;42.50;;;;;;4920183;29;20056;-60
2022/06/13 09:33:16;;;;;;;5.50;1.35;;;29.90;41.00;;;;;;4921683;29;20042;-61
2022/06/13 09:36:25;;;;;;;3.78;1.30;;;29.40;42.70;;;;;;4922285;29;20115;-61
2022/06/13 09:38:58;;;;;;;4.07;1.40;;;29.70;41.60;;;;;;4913936;29;20118;-61
2022/06/13 09:41:32;;;;;;;5.30;1.33;;;30.50;40.60;;;;;;4920893;29;20051;-61
2022/06/13 09:44:39;;;;;;;3.85;1.27;;;31.20;38.70;;;;;;4924813;29;20029;-61
2022/06/13 09:47:05;;;;;;;3.38;1.08;;;32.50;38.30;;;;;;4918805;29;20059;-61
2022/06/13 09:50:00;;;;;;;5.70;1.20;;;32.80;36.40;;;;;;4920190;29;20107;-61
2022/06/13 09:52:44;;;;;;;4.47;1.15;;;32.80;36.30;;;;;;4907272;29;20024;-61
2022/06/13 09:55:14;;;;;;;3.83;1.00;;;32.10;37.40;;;;;;4910826;29;20031;-61
2022/06/13 09:57:48;;;;;;;6.78;0.90;;;32.30;39.00;;;;;;4922413;29;20170;-61
2022/06/13 10:00:33;;;;;;;2.78;0.90;;;32.50;36.80;;;;;;4921588;29;20123;-61
2022/06/13 10:03:19;;;;;;;3.90;1.00;;;31.60;37.00;;;;;;4918513;29;20652;-61
2022/06/13 10:06:05;;;;;;;2.55;1.10;;;29.70;38.30;;;;;;4923063;29;20370;-61
2022/06/13 10:08:34;;;;;;;2.83;0.80;;;29.00;40.50;;;;;;4921344;29;20024;-60
2022/06/13 10:11:16;;;;;;;2.17;0.90;;;29.50;38.50;;;;;;4921792;29;20054;-61
2022/06/13 10:14:05;;;;;;;2.38;0.93;;;30.30;37.10;;;;;;4923892;29;20051;-61
2022/06/13 10:16:57;;;;;;;3.38;1.10;;;31.20;36.60;;;;;;4922354;29;20024;-60
2022/06/13 10:19:27;;;;;;;4.95;0.90;;;31.70;37.10;;;;;;4912347;29;20448;-61
2022/06/13 10:21:56;;;;;;;5.50;0.98;;;31.70;37.20;;;;;;4918692;29;20028;-61
2022/06/13 10:24:36;;;;;;;2.58;0.90;;;31.90;35.80;;;;;;4921309;29;20051;-61
2022/06/13 10:27:21;;;;;;;2.03;1.10;;;31.00;34.60;;;;;;4916796;29;20064;-61
2022/06/13 10:30:09;;;;;;;2.58;0.80;;;31.20;36.40;;;;;;4923511;29;20036;-60
2022/06/13 10:32:46;;;;;;;1.95;0.80;;;31.80;36.20;;;;;;4922032;29;20036;-61
2022/06/13 10:35:24;;;;;;;2.55;0.88;;;32.70;36.30;;;;;;4919424;29;20040;-61
2022/06/13 10:37:56;;;;;;;3.00;0.80;;;32.50;35.10;;;;;;4900727;29;20040;-61
2022/06/13 10:40:23;;;;;;;2.97;0.65;;;32.60;35.90;;;;;;4919743;29;20138;-61
2022/06/13 10:42:49;;;;;;;2.88;1.00;;;32.70;35.40;;;;;;4921530;29;20043;-61
2022/06/13 10:45:16;;;;;;;2.53;0.80;;;33.00;36.70;;;;;;4921338;29;20060;-61
2022/06/13 10:47:50;;;;;;;5.85;0.73;;;33.10;33.90;;;;;;4920859;29;20055;-61
2022/06/13 10:50:37;;;;;;;3.83;1.00;;;32.80;33.70;;;;;;4916250;29;20028;-61
2022/06/13 10:53:07;;;;;;;4.97;0.70;;;32.30;34.40;;;;;;4918548;29;20126;-61
2022/06/13 10:55:36;;;;;;;;;;;31.70;35.10;;;;;;4920766;29;20055;-61
2022/06/13 10:58:21;;;;;;;2.60;0.90;;;31.70;35.70;;;;;;4917960;29;19998;-61
2022/06/13 11:01:05;;;;;;;3.00;0.77;;;31.70;35.90;;;;;;4909975;29;20123;-61
2022/06/13 11:03:31;;;;;;;1.92;0.80;;;31.20;36.10;;;;;;4920845;29;20127;-61
2022/06/13 11:06:04;;;;;;;3.75;0.80;;;30.60;35.90;;;;;;4918580;29;20107;-60
2022/06/13 11:08:31;;;;;;;1.95;0.60;;;30.20;36.00;;;;;;4918853;29;20056;-61
2022/06/13 11:10:56;;;;;;;3.45;0.80;;;30.50;37.00;;;;;;4919602;29;20031;-61
2022/06/13 11:13:36;;;;;;;5.40;1.20;;;31.10;36.10;;;;;;4922389;29;20028;-60
2022/06/13 11:24:40;;;;;;;4.50;1.10;;;27.60;41.00;;;;;;4917639;29;20060;-60
2022/06/13 11:30:16;;;;;;;3.70;1.40;;;26.40;46.40;;;;;;4917709;29;20087;-60
2022/06/13 11:32:54;;;;;;;3.30;0.95;;;26.60;45.60;;;;;;4915738;29;20399;-60
2022/06/13 11:35:41;;;;;;;2.33;0.90;;;26.80;44.00;;;;;;4922345;29;20689;-60
2022/06/13 11:38:45;;;;;;;2.13;0.90;;;27.10;43.30;;;;;;4919044;29;20127;-60
2022/06/13 11:41:17;;;;;;;2.88;1.05;;;27.10;41.80;;;;;;4908925;29;20040;-60
2022/06/13 11:43:48;;;;;;;2.28;0.88;;;26.50;44.00;;;;;;4919850;29;20055;-60
2022/06/13 11:46:36;;;;;;;3.60;0.98;;;26.60;41.40;;;;;;4919707;29;20028;-60
2022/06/13 11:49:28;;;;;;;1.88;0.80;;;26.60;42.40;;;;;;4916800;29;20035;-60
2022/06/13 11:52:02;;;;;;;4.10;1.00;;;26.80;41.70;;;;;;4900209;29;20048;-60
2022/06/13 11:54:32;;;;;;;1.80;0.90;;;26.70;41.40;;;;;;4917593;29;20036;-60
2022/06/13 11:57:13;;;;;;;3.75;1.17;;;26.70;42.50;;;;;;4922953;29;20119;-60
2022/06/13 11:59:56;;;;;;;5.72;1.13;;;26.50;42.00;;;;;;4920803;29;20059;-60
2022/06/13 12:02:41;;;;;;;5.63;1.20;;;26.60;42.00;;;;;;4923081;29;20025;-60
2022/06/13 12:05:28;;;;;;;6.10;0.90;;;26.80;42.60;;;;;;4920729;29;20040;-60
2022/06/13 12:08:19;;;;;;;3.85;1.00;;;27.00;42.20;;;;;;4923343;29;20044;-60
2022/06/13 12:11:01;;;;;;;2.40;1.00;;;27.10;42.50;;;;;;4923302;29;20039;-60
2022/06/13 12:13:30;;;;;;;7.82;1.00;;;26.80;42.40;;;;;;4923895;29;20043;-60
2022/06/13 12:16:27;;;;;;;6.10;1.20;;;26.80;41.70;;;;;;4921956;29;20020;-60
2022/06/13 12:19:10;;;;;;;3.08;1.25;;;26.80;41.60;;;;;;4921386;29;20036;-60
2022/06/13 12:21:55;;;;;;;5.00;1.00;;;26.60;42.50;;;;;;4926290;29;20042;-60
2022/06/13 12:24:35;;;;;;;1.90;0.88;;;26.60;43.50;;;;;;4922567;29;20123;-59
2022/06/13 12:27:21;;;;;;;2.25;1.10;;;26.70;43.10;;;;;;4924177;29;20523;-60
2022/06/13 12:30:08;;;;;;;2.42;1.00;;;26.50;42.90;;;;;;4923052;29;20044;-60
2022/06/13 12:32:55;;;;;;;3.60;1.25;;;26.80;43.80;;;;;;4924909;29;20039;-60
2022/06/13 12:35:38;;;;;;;3.53;1.35;;;27.00;43.10;;;;;;4921233;29;20028;-60
2022/06/13 12:38:22;;;;;;;3.50;1.40;;;27.40;43.50;;;;;;4920264;29;20404;-60
2022/06/13 12:41:05;;;;;;;2.45;1.20;;;27.60;43.10;;;;;;4923500;29;20035;-60
2022/06/13 12:44:01;;;;;;;3.10;1.30;;;27.60;43.00;;;;;;4925598;29;20059;-59
2022/06/13 12:46:48;;;;;;;2.33;1.10;;;27.10;43.90;;;;;;4924514;29;20040;-60
2022/06/13 12:49:51;;;;;;;3.78;1.33;;;26.70;44.80;;;;;;4918340;29;20040;-60
2022/06/13 12:52:46;;;;;;;2.45;1.48;;;26.80;44.90;;;;;;4915827;29;20716;-60
2022/06/13 12:55:41;;;;;;;2.40;1.02;;;26.80;45.40;;;;;;4922095;29;20032;-60
2022/06/13 12:58:42;;;;;;;5.20;1.20;;;26.80;44.20;;;;;;4924620;29;20044;-59
2022/06/13 13:01:14;;;;;;;6.68;1.45;;;27.00;44.70;;;;;;4912876;29;20044;-60
2022/06/13 13:04:06;;;;;;;1.40;1.00;;;26.80;44.70;;;;;;4924422;29;20028;-59
2022/06/13 13:07:10;;;;;;;3.25;1.20;;;26.90;44.20;;;;;;4891482;29;20048;-59
2022/06/13 13:09:42;;;;;;;2.05;1.20;;;26.50;43.60;;;;;;4920609;29;20131;-59
2022/06/13 13:12:27;;;;;;;3.05;1.42;;;26.00;44.70;;;;;;4922315;29;20028;-60
2022/06/13 13:15:21;;;;;;;6.28;1.33;;;25.50;46.00;;;;;;4923118;29;20036;-59
2022/06/13 13:17:47;;;;;;;2.58;1.00;;;25.60;47.30;;;;;;4837087;29;20035;-60
2022/06/13 13:20:40;;;;;;;3.30;1.27;;;26.10;45.90;;;;;;4922688;29;20029;-60
2022/06/13 13:23:43;;;;;;;4.57;1.75;;;26.00;45.00;;;;;;4919760;29;20384;-60
2022/06/13 13:26:32;;;;;;;5.85;1.42;;;25.80;45.70;;;;;;4922040;29;20040;-59
2022/06/13 13:29:06;;;;;;;5.10;1.13;;;25.90;46.50;;;;;;4918857;29;20035;-60
2022/06/13 13:31:44;;;;;;;4.82;1.30;;;25.70;45.60;;;;;;4923501;29;20043;-60
2022/06/13 13:34:19;;;;;;;8.98;1.27;;;25.50;46.10;;;;;;4921011;29;20150;-60
2022/06/13 13:37:05;;;;;;;4.85;1.35;;;25.50;47.20;;;;;;4906225;29;20118;-60
2022/06/13 13:39:44;;;;;;;2.92;1.00;;;25.50;46.50;;;;;;4922247;29;20649;-59
2022/06/13 13:42:18;;;;;;;2.95;1.02;;;25.40;45.60;;;;;;4922325;29;20114;-60
2022/06/13 13:44:50;;;;;;;1.52;0.90;;;25.30;46.50;;;;;;4920918;29;20043;-60
2022/06/13 13:47:21;;;;;;;5.68;1.10;;;25.20;45.90;;;;;;4919114;29;20034;-60
2022/06/13 13:49:52;;;;;;;3.50;1.02;;;24.90;46.60;;;;;;4921096;29;20039;-60
2022/06/13 13:52:23;;;;;;;2.58;1.00;;;24.60;47.50;;;;;;4920588;29;20031;-59
2022/06/13 13:54:53;;;;;;;;;;;24.60;48.30;;;;;;4918664;29;20032;-59
2022/06/13 13:57:29;;;;;;;2.75;1.05;;;24.60;47.90;;;;;;4920851;29;19928;-59